sensor_id;sensor_type;location;lat;lon;timestamp;temperature;humidity
20442;DHT22;10380;52.102;20.614;2023-04-25T00:01:56;13.00;99.90
20442;DHT22;10380;52.102;20.614;2023-04-25T00:04:23;13.00;99.90
20442;DHT22;10380;52.102;20.614;2023-04-25T00:06:50;12.90;99.90
20442;DHT22;10380;52.102;20.614;2023-04-25T00:09:19;12.90;99.90
20442;DHT22;10380;52.102;20.614;2023-04-25T00:11:46;12.90;99.90
20442;DHT22;10380;52.102;20.614;2023-04-25T00:14:13;12.90;99.90
20442;DHT22;10380;52.102;20.614;2023-04-25T00:16:40;12.90;99.90
20442;DHT22;10380;52.102;20.614;2023-04-25T00:19:08;12.90;99.90
20442;DHT22;10380;52.102;20.614;2023-04-25T00:21:36;12.90;99.90
20442;DHT22;10380;52.102;20.614;2023-04-25T00:24:07;12.90;99.90
20442;DHT22;10380;52.102;20.614;2023-04-25T00:26:35;12.80;99.90
20442;DHT22;10380;52.102;20.614;2023-04-25T00:29:04;12.80;99.90
20442;DHT22;10380;52.102;20.614;2023-04-25T00:31:31;12.70;99.90
20442;DHT22;10380;52.102;20.614;2023-04-25T00:34:00;12.70;99.90
20442;DHT22;10380;52.102;20.614;2023-04-25T00:36:26;12.70;99.90
20442;DHT22;10380;52.102;20.614;2023-04-25T00:38:54;12.70;99.90
20442;DHT22;10380;52.102;20.614;2023-04-25T00:41:21;12.60;99.90
20442;DHT22;10380;52.102;20.614;2023-04-25T00:43:49;12.60;99.90
20442;DHT22;10380;52.102;20.614;2023-04-25T00:46:16;12.60;99.90
20442;DHT22;10380;52.102;20.614;2023-04-25T00:48:43;12.50;99.90
20442;DHT22;10380;52.102;20.614;2023-04-25T00:51:15;12.50;99.90
20442;DHT22;10380;52.102;20.614;2023-04-25T00:53:44;12.50;99.90
20442;DHT22;10380;52.102;20.614;2023-04-25T00:56:11;12.40;99.90
20442;DHT22;10380;52.102;20.614;2023-04-25T00:58:40;12.30;99.90
20442;DHT22;10380;52.102;20.614;2023-04-25T01:01:08;12.30;99.90
20442;DHT22;10380;52.102;20.614;2023-04-25T01:03:38;12.30;99.90
20442;DHT22;10380;52.102;20.614;2023-04-25T01:06:10;12.20;99.90
20442;DHT22;10380;52.102;20.614;2023-04-25T01:08:39;12.10;99.90
20442;DHT22;10380;52.102;20.614;2023-04-25T01:11:06;12.10;99.90
20442;DHT22;10380;52.102;20.614;2023-04-25T01:13:33;12.10;99.90
20442;DHT22;10380;52.102;20.614;2023-04-25T01:16:01;12.10;99.90
20442;DHT22;10380;52.102;20.614;2023-04-25T01:18:28;12.10;99.90
20442;DHT22;10380;52.102;20.614;2023-04-25T01:20:55;12.10;99.90
20442;DHT22;10380;52.102;20.614;2023-04-25T01:23:24;12.00;99.90
20442;DHT22;10380;52.102;20.614;2023-04-25T01:25:51;12.10;99.90
20442;DHT22;10380;52.102;20.614;2023-04-25T01:28:18;12.10;99.90
20442;DHT22;10380;52.102;20.614;2023-04-25T01:30:46;12.00;99.90
20442;DHT22;10380;52.102;20.614;2023-04-25T01:33:14;12.00;99.90
20442;DHT22;10380;52.102;20.614;2023-04-25T01:35:42;12.10;99.90
20442;DHT22;10380;52.102;20.614;2023-04-25T01:38:09;12.10;99.90
20442;DHT22;10380;52.102;20.614;2023-04-25T01:40:38;12.00;99.90
20442;DHT22;10380;52.102;20.614;2023-04-25T01:43:08;12.00;99.90
20442;DHT22;10380;52.102;20.614;2023-04-25T01:45:38;12.00;99.90
20442;DHT22;10380;52.102;20.614;2023-04-25T01:48:09;12.00;99.90
20442;DHT22;10380;52.102;20.614;2023-04-25T01:50:37;12.00;99.90
20442;DHT22;10380;52.102;20.614;2023-04-25T01:53:04;12.00;99.90
20442;DHT22;10380;52.102;20.614;2023-04-25T01:55:32;12.00;99.90
20442;DHT22;10380;52.102;20.614;2023-04-25T01:58:01;12.00;99.90
20442;DHT22;10380;52.102;20.614;2023-04-25T02:00:28;12.00;99.90
20442;DHT22;10380;52.102;20.614;2023-04-25T02:02:59;12.00;99.90
20442;DHT22;10380;52.102;20.614;2023-04-25T02:05:26;12.00;99.90
20442;DHT22;10380;52.102;20.614;2023-04-25T02:07:53;12.00;99.90
20442;DHT22;10380;52.102;20.614;2023-04-25T02:10:20;12.00;99.90
20442;DHT22;10380;52.102;20.614;2023-04-25T02:12:47;12.00;99.90
20442;DHT22;10380;52.102;20.614;2023-04-25T02:15:13;12.10;99.90
20442;DHT22;10380;52.102;20.614;2023-04-25T02:17:40;12.10;99.90
20442;DHT22;10380;52.102;20.614;2023-04-25T02:20:07;12.00;99.90
20442;DHT22;10380;52.102;20.614;2023-04-25T02:22:35;12.10;99.90
20442;DHT22;10380;52.102;20.614;2023-04-25T02:25:02;12.10;99.90
20442;DHT22;10380;52.102;20.614;2023-04-25T02:27:31;12.10;99.90
20442;DHT22;10380;52.102;20.614;2023-04-25T02:29:58;12.10;99.90
20442;DHT22;10380;52.102;20.614;2023-04-25T02:32:25;12.10;99.90
20442;DHT22;10380;52.102;20.614;2023-04-25T02:34:53;12.10;99.90
20442;DHT22;10380;52.102;20.614;2023-04-25T02:37:20;12.10;99.90
20442;DHT22;10380;52.102;20.614;2023-04-25T02:39:47;12.10;99.90
20442;DHT22;10380;52.102;20.614;2023-04-25T02:42:14;12.20;99.90
20442;DHT22;10380;52.102;20.614;2023-04-25T02:44:41;12.10;99.90
20442;DHT22;10380;52.102;20.614;2023-04-25T02:47:08;12.10;99.90
20442;DHT22;10380;52.102;20.614;2023-04-25T02:49:34;12.00;99.90
20442;DHT22;10380;52.102;20.614;2023-04-25T02:52:01;12.00;99.90
20442;DHT22;10380;52.102;20.614;2023-04-25T02:54:28;12.00;99.90
20442;DHT22;10380;52.102;20.614;2023-04-25T02:56:56;12.00;99.90
20442;DHT22;10380;52.102;20.614;2023-04-25T02:59:23;11.90;99.90
20442;DHT22;10380;52.102;20.614;2023-04-25T03:01:50;11.90;99.90
20442;DHT22;10380;52.102;20.614;2023-04-25T03:04:17;11.90;99.90
20442;DHT22;10380;52.102;20.614;2023-04-25T03:06:46;11.90;99.90
20442;DHT22;10380;52.102;20.614;2023-04-25T03:09:13;11.80;99.90
20442;DHT22;10380;52.102;20.614;2023-04-25T03:11:39;11.80;99.90
20442;DHT22;10380;52.102;20.614;2023-04-25T03:14:07;11.70;99.90
20442;DHT22;10380;52.102;20.614;2023-04-25T03:16:34;11.70;99.90
20442;DHT22;10380;52.102;20.614;2023-04-25T03:19:01;11.70;99.90
20442;DHT22;10380;52.102;20.614;2023-04-25T03:21:29;11.70;99.90
20442;DHT22;10380;52.102;20.614;2023-04-25T03:23:56;11.60;99.90
20442;DHT22;10380;52.102;20.614;2023-04-25T03:26:22;11.60;99.90
20442;DHT22;10380;52.102;20.614;2023-04-25T03:28:50;11.50;99.90
20442;DHT22;10380;52.102;20.614;2023-04-25T03:31:17;11.60;99.90
20442;DHT22;10380;52.102;20.614;2023-04-25T03:33:44;11.50;99.90
20442;DHT22;10380;52.102;20.614;2023-04-25T03:36:11;11.50;99.90
20442;DHT22;10380;52.102;20.614;2023-04-25T03:38:39;11.50;99.90
20442;DHT22;10380;52.102;20.614;2023-04-25T03:41:08;11.50;99.90
20442;DHT22;10380;52.102;20.614;2023-04-25T03:43:35;11.40;99.90
20442;DHT22;10380;52.102;20.614;2023-04-25T03:46:02;11.40;99.90
20442;DHT22;10380;52.102;20.614;2023-04-25T03:48:28;11.40;99.90
20442;DHT22;10380;52.102;20.614;2023-04-25T03:50:55;11.30;99.90
20442;DHT22;10380;52.102;20.614;2023-04-25T03:53:22;11.30;99.90
20442;DHT22;10380;52.102;20.614;2023-04-25T03:55:49;11.30;99.90
20442;DHT22;10380;52.102;20.614;2023-04-25T03:58:16;11.30;99.90
20442;DHT22;10380;52.102;20.614;2023-04-25T04:00:43;11.20;99.90
20442;DHT22;10380;52.102;20.614;2023-04-25T04:03:10;11.20;99.90
20442;DHT22;10380;52.102;20.614;2023-04-25T04:05:37;11.20;99.90
20442;DHT22;10380;52.102;20.614;2023-04-25T04:08:07;11.10;99.90
20442;DHT22;10380;52.102;20.614;2023-04-25T04:10:34;11.10;99.90
20442;DHT22;10380;52.102;20.614;2023-04-25T04:13:01;11.00;99.90
20442;DHT22;10380;52.102;20.614;2023-04-25T04:15:29;11.00;99.90
20442;DHT22;10380;52.102;20.614;2023-04-25T04:17:56;11.00;99.90
20442;DHT22;10380;52.102;20.614;2023-04-25T04:20:23;11.00;99.90
20442;DHT22;10380;52.102;20.614;2023-04-25T04:22:50;11.00;99.90
20442;DHT22;10380;52.102;20.614;2023-04-25T04:25:17;11.00;99.90
20442;DHT22;10380;52.102;20.614;2023-04-25T04:27:44;11.00;99.90
20442;DHT22;10380;52.102;20.614;2023-04-25T04:30:12;11.00;99.90
20442;DHT22;10380;52.102;20.614;2023-04-25T04:32:39;11.00;99.90
20442;DHT22;10380;52.102;20.614;2023-04-25T04:35:07;11.00;99.90
20442;DHT22;10380;52.102;20.614;2023-04-25T04:37:36;10.90;99.90
20442;DHT22;10380;52.102;20.614;2023-04-25T04:40:03;10.90;99.90
20442;DHT22;10380;52.102;20.614;2023-04-25T04:42:31;10.90;99.90
20442;DHT22;10380;52.102;20.614;2023-04-25T04:44:58;10.90;99.90
20442;DHT22;10380;52.102;20.614;2023-04-25T04:47:28;10.80;99.90
20442;DHT22;10380;52.102;20.614;2023-04-25T04:49:58;10.70;99.90
20442;DHT22;10380;52.102;20.614;2023-04-25T04:52:24;10.70;99.90
20442;DHT22;10380;52.102;20.614;2023-04-25T04:54:51;10.70;99.90
20442;DHT22;10380;52.102;20.614;2023-04-25T04:57:18;10.70;99.90
20442;DHT22;10380;52.102;20.614;2023-04-25T04:59:45;10.70;99.90
20442;DHT22;10380;52.102;20.614;2023-04-25T05:02:12;10.70;99.90
20442;DHT22;10380;52.102;20.614;2023-04-25T05:04:39;10.80;99.90
20442;DHT22;10380;52.102;20.614;2023-04-25T05:07:06;10.70;99.90
20442;DHT22;10380;52.102;20.614;2023-04-25T05:09:33;10.70;99.90
20442;DHT22;10380;52.102;20.614;2023-04-25T05:12:00;10.70;99.90
20442;DHT22;10380;52.102;20.614;2023-04-25T05:14:28;10.70;99.90
20442;DHT22;10380;52.102;20.614;2023-04-25T05:16:54;10.60;99.90
20442;DHT22;10380;52.102;20.614;2023-04-25T05:19:21;10.70;99.90
20442;DHT22;10380;52.102;20.614;2023-04-25T05:21:49;10.60;99.90
20442;DHT22;10380;52.102;20.614;2023-04-25T05:24:16;10.60;99.90
20442;DHT22;10380;52.102;20.614;2023-04-25T05:26:43;10.60;99.90
20442;DHT22;10380;52.102;20.614;2023-04-25T05:29:09;10.60;99.90
20442;DHT22;10380;52.102;20.614;2023-04-25T05:31:36;10.60;99.90
20442;DHT22;10380;52.102;20.614;2023-04-25T05:34:03;10.60;99.90
20442;DHT22;10380;52.102;20.614;2023-04-25T05:36:30;10.60;99.90
20442;DHT22;10380;52.102;20.614;2023-04-25T05:38:58;10.60;99.90
20442;DHT22;10380;52.102;20.614;2023-04-25T05:41:25;10.60;99.90
20442;DHT22;10380;52.102;20.614;2023-04-25T05:43:52;10.60;99.90
20442;DHT22;10380;52.102;20.614;2023-04-25T05:46:23;10.50;99.90
20442;DHT22;10380;52.102;20.614;2023-04-25T05:48:50;10.50;99.90
20442;DHT22;10380;52.102;20.614;2023-04-25T05:51:16;10.40;99.90
20442;DHT22;10380;52.102;20.614;2023-04-25T05:53:44;10.40;99.90
20442;DHT22;10380;52.102;20.614;2023-04-25T05:56:11;10.30;99.90
20442;DHT22;10380;52.102;20.614;2023-04-25T05:58:38;10.30;99.90
20442;DHT22;10380;52.102;20.614;2023-04-25T06:01:05;10.30;99.90
20442;DHT22;10380;52.102;20.614;2023-04-25T06:03:33;10.20;99.90
20442;DHT22;10380;52.102;20.614;2023-04-25T06:06:00;10.30;99.90
20442;DHT22;10380;52.102;20.614;2023-04-25T06:08:27;10.20;99.90
20442;DHT22;10380;52.102;20.614;2023-04-25T06:10:53;10.30;99.90
20442;DHT22;10380;52.102;20.614;2023-04-25T06:13:20;10.20;99.90
20442;DHT22;10380;52.102;20.614;2023-04-25T06:15:47;10.30;99.90
20442;DHT22;10380;52.102;20.614;2023-04-25T06:18:15;10.20;99.90
20442;DHT22;10380;52.102;20.614;2023-04-25T06:20:41;10.20;99.90
20442;DHT22;10380;52.102;20.614;2023-04-25T06:23:08;10.20;99.90
20442;DHT22;10380;52.102;20.614;2023-04-25T06:25:35;10.20;99.90
20442;DHT22;10380;52.102;20.614;2023-04-25T06:28:02;10.20;99.90
20442;DHT22;10380;52.102;20.614;2023-04-25T06:30:28;10.20;99.90
20442;DHT22;10380;52.102;20.614;2023-04-25T06:32:56;10.10;99.90
20442;DHT22;10380;52.102;20.614;2023-04-25T06:35:23;10.10;99.90
20442;DHT22;10380;52.102;20.614;2023-04-25T06:37:49;10.10;99.90
20442;DHT22;10380;52.102;20.614;2023-04-25T06:40:16;10.10;99.90
20442;DHT22;10380;52.102;20.614;2023-04-25T06:42:44;10.10;99.90
20442;DHT22;10380;52.102;20.614;2023-04-25T06:45:10;10.10;99.90
20442;DHT22;10380;52.102;20.614;2023-04-25T06:47:37;10.10;99.90
20442;DHT22;10380;52.102;20.614;2023-04-25T06:50:05;10.20;99.90
20442;DHT22;10380;52.102;20.614;2023-04-25T06:52:32;10.20;99.90
20442;DHT22;10380;52.102;20.614;2023-04-25T06:55:01;10.20;99.90
20442;DHT22;10380;52.102;20.614;2023-04-25T06:57:29;10.30;99.90
20442;DHT22;10380;52.102;20.614;2023-04-25T06:59:56;10.20;99.90
20442;DHT22;10380;52.102;20.614;2023-04-25T07:02:22;10.20;99.90
20442;DHT22;10380;52.102;20.614;2023-04-25T07:04:50;10.20;99.90
20442;DHT22;10380;52.102;20.614;2023-04-25T07:07:17;10.10;99.90
20442;DHT22;10380;52.102;20.614;2023-04-25T07:09:43;10.10;99.90
20442;DHT22;10380;52.102;20.614;2023-04-25T07:12:10;10.10;99.90
20442;DHT22;10380;52.102;20.614;2023-04-25T07:14:37;10.10;99.90
20442;DHT22;10380;52.102;20.614;2023-04-25T07:17:04;10.10;99.90
20442;DHT22;10380;52.102;20.614;2023-04-25T07:19:33;10.10;99.90
20442;DHT22;10380;52.102;20.614;2023-04-25T07:22:00;10.10;99.90
20442;DHT22;10380;52.102;20.614;2023-04-25T07:24:28;10.10;99.90
20442;DHT22;10380;52.102;20.614;2023-04-25T07:26:55;10.10;99.90
20442;DHT22;10380;52.102;20.614;2023-04-25T07:29:21;10.10;99.90
20442;DHT22;10380;52.102;20.614;2023-04-25T07:31:48;10.10;99.90
20442;DHT22;10380;52.102;20.614;2023-04-25T07:34:15;10.00;99.90
20442;DHT22;10380;52.102;20.614;2023-04-25T07:36:43;10.00;99.90
20442;DHT22;10380;52.102;20.614;2023-04-25T07:39:10;9.90;99.90
20442;DHT22;10380;52.102;20.614;2023-04-25T07:41:37;9.80;99.90
20442;DHT22;10380;52.102;20.614;2023-04-25T07:44:04;9.80;99.90
20442;DHT22;10380;52.102;20.614;2023-04-25T07:46:30;9.80;99.90
20442;DHT22;10380;52.102;20.614;2023-04-25T07:48:57;9.80;99.90
20442;DHT22;10380;52.102;20.614;2023-04-25T07:51:24;9.70;99.90
20442;DHT22;10380;52.102;20.614;2023-04-25T07:53:52;9.80;99.90
20442;DHT22;10380;52.102;20.614;2023-04-25T07:56:19;9.80;99.90
20442;DHT22;10380;52.102;20.614;2023-04-25T07:58:46;9.80;99.90
20442;DHT22;10380;52.102;20.614;2023-04-25T08:01:12;9.70;99.90
20442;DHT22;10380;52.102;20.614;2023-04-25T08:03:39;9.70;99.90
20442;DHT22;10380;52.102;20.614;2023-04-25T08:06:06;9.60;99.90
20442;DHT22;10380;52.102;20.614;2023-04-25T08:08:34;9.60;99.90
20442;DHT22;10380;52.102;20.614;2023-04-25T08:11:01;9.60;99.90
20442;DHT22;10380;52.102;20.614;2023-04-25T08:13:28;9.60;99.90
20442;DHT22;10380;52.102;20.614;2023-04-25T08:15:54;9.70;99.90
20442;DHT22;10380;52.102;20.614;2023-04-25T08:18:21;9.70;99.90
20442;DHT22;10380;52.102;20.614;2023-04-25T08:20:48;9.70;99.90
20442;DHT22;10380;52.102;20.614;2023-04-25T08:23:15;9.80;99.90
20442;DHT22;10380;52.102;20.614;2023-04-25T08:25:42;9.90;99.90
20442;DHT22;10380;52.102;20.614;2023-04-25T08:28:08;9.90;99.90
20442;DHT22;10380;52.102;20.614;2023-04-25T08:30:36;10.00;99.90
20442;DHT22;10380;52.102;20.614;2023-04-25T08:33:03;10.10;99.90
20442;DHT22;10380;52.102;20.614;2023-04-25T08:35:30;10.10;99.90
20442;DHT22;10380;52.102;20.614;2023-04-25T08:37:57;10.20;99.90
20442;DHT22;10380;52.102;20.614;2023-04-25T08:40:26;10.20;99.90
20442;DHT22;10380;52.102;20.614;2023-04-25T08:43:00;10.30;99.90
20442;DHT22;10380;52.102;20.614;2023-04-25T08:45:31;10.30;99.90
20442;DHT22;10380;52.102;20.614;2023-04-25T08:47:59;10.30;99.90
20442;DHT22;10380;52.102;20.614;2023-04-25T08:50:27;10.20;99.90
20442;DHT22;10380;52.102;20.614;2023-04-25T08:52:54;10.20;99.90
20442;DHT22;10380;52.102;20.614;2023-04-25T08:55:23;10.20;99.90
20442;DHT22;10380;52.102;20.614;2023-04-25T08:57:51;10.30;99.90
20442;DHT22;10380;52.102;20.614;2023-04-25T09:00:18;10.30;99.90
20442;DHT22;10380;52.102;20.614;2023-04-25T09:02:46;10.30;99.90
20442;DHT22;10380;52.102;20.614;2023-04-25T09:05:14;10.30;99.90
20442;DHT22;10380;52.102;20.614;2023-04-25T09:07:41;10.40;99.90
20442;DHT22;10380;52.102;20.614;2023-04-25T09:10:08;10.40;99.90
20442;DHT22;10380;52.102;20.614;2023-04-25T09:12:35;10.40;99.90
20442;DHT22;10380;52.102;20.614;2023-04-25T09:15:03;10.40;99.90
20442;DHT22;10380;52.102;20.614;2023-04-25T09:17:31;10.40;99.90
20442;DHT22;10380;52.102;20.614;2023-04-25T09:20:12;10.50;99.90
20442;DHT22;10380;52.102;20.614;2023-04-25T09:22:39;10.60;99.90
20442;DHT22;10380;52.102;20.614;2023-04-25T09:25:13;10.60;99.90
20442;DHT22;10380;52.102;20.614;2023-04-25T09:27:53;10.60;99.90
20442;DHT22;10380;52.102;20.614;2023-04-25T09:30:30;10.60;99.90
20442;DHT22;10380;52.102;20.614;2023-04-25T09:33:03;10.60;99.90
20442;DHT22;10380;52.102;20.614;2023-04-25T09:35:35;10.70;99.90
20442;DHT22;10380;52.102;20.614;2023-04-25T09:38:13;10.70;99.90
20442;DHT22;10380;52.102;20.614;2023-04-25T09:40:45;10.80;99.90
20442;DHT22;10380;52.102;20.614;2023-04-25T09:43:23;10.80;99.90
20442;DHT22;10380;52.102;20.614;2023-04-25T09:45:51;10.90;99.90
20442;DHT22;10380;52.102;20.614;2023-04-25T09:48:21;11.00;99.90
20442;DHT22;10380;52.102;20.614;2023-04-25T09:51:07;11.00;99.90
20442;DHT22;10380;52.102;20.614;2023-04-25T09:53:39;11.00;99.90
20442;DHT22;10380;52.102;20.614;2023-04-25T09:56:08;11.00;99.90
20442;DHT22;10380;52.102;20.614;2023-04-25T09:58:36;11.00;99.90
20442;DHT22;10380;52.102;20.614;2023-04-25T10:01:09;11.00;99.90
20442;DHT22;10380;52.102;20.614;2023-04-25T10:03:38;11.00;99.90
20442;DHT22;10380;52.102;20.614;2023-04-25T10:06:12;11.10;99.90
20442;DHT22;10380;52.102;20.614;2023-04-25T10:08:41;11.10;99.90
20442;DHT22;10380;52.102;20.614;2023-04-25T10:11:08;11.20;99.90
20442;DHT22;10380;52.102;20.614;2023-04-25T10:13:36;11.20;99.90
20442;DHT22;10380;52.102;20.614;2023-04-25T10:16:04;11.30;99.90
20442;DHT22;10380;52.102;20.614;2023-04-25T10:18:32;11.40;99.90
20442;DHT22;10380;52.102;20.614;2023-04-25T10:21:03;11.30;99.90
20442;DHT22;10380;52.102;20.614;2023-04-25T10:23:31;11.30;99.90
20442;DHT22;10380;52.102;20.614;2023-04-25T10:25:59;11.30;99.90
20442;DHT22;10380;52.102;20.614;2023-04-25T10:28:27;11.20;99.90
20442;DHT22;10380;52.102;20.614;2023-04-25T10:31:07;11.20;99.90
20442;DHT22;10380;52.102;20.614;2023-04-25T10:33:40;11.20;99.90
20442;DHT22;10380;52.102;20.614;2023-04-25T10:38:41;11.20;99.90
20442;DHT22;10380;52.102;20.614;2023-04-25T10:41:10;11.20;99.90
20442;DHT22;10380;52.102;20.614;2023-04-25T10:43:45;11.10;99.90
20442;DHT22;10380;52.102;20.614;2023-04-25T10:51:31;11.30;99.90
20442;DHT22;10380;52.102;20.614;2023-04-25T10:54:18;11.20;99.90
20442;DHT22;10380;52.102;20.614;2023-04-25T10:56:48;11.20;99.90
20442;DHT22;10380;52.102;20.614;2023-04-25T10:59:17;11.20;99.90
20442;DHT22;10380;52.102;20.614;2023-04-25T11:01:51;11.20;99.90
20442;DHT22;10380;52.102;20.614;2023-04-25T11:04:22;11.30;99.90
20442;DHT22;10380;52.102;20.614;2023-04-25T11:09:39;11.30;99.90
20442;DHT22;10380;52.102;20.614;2023-04-25T11:12:09;11.30;99.90
20442;DHT22;10380;52.102;20.614;2023-04-25T11:14:38;11.30;99.90
20442;DHT22;10380;52.102;20.614;2023-04-25T11:17:06;11.40;99.90
20442;DHT22;10380;52.102;20.614;2023-04-25T11:19:33;11.50;99.90
20442;DHT22;10380;52.102;20.614;2023-04-25T11:22:02;11.60;99.90
20442;DHT22;10380;52.102;20.614;2023-04-25T11:24:33;11.50;99.90
20442;DHT22;10380;52.102;20.614;2023-04-25T11:27:02;11.50;99.90
20442;DHT22;10380;52.102;20.614;2023-04-25T11:29:33;11.40;99.90
20442;DHT22;10380;52.102;20.614;2023-04-25T11:32:00;11.40;99.90
20442;DHT22;10380;52.102;20.614;2023-04-25T11:34:30;11.40;99.90
20442;DHT22;10380;52.102;20.614;2023-04-25T11:36:57;11.40;99.90
20442;DHT22;10380;52.102;20.614;2023-04-25T11:39:25;11.40;99.90
20442;DHT22;10380;52.102;20.614;2023-04-25T11:41:53;11.40;99.90
20442;DHT22;10380;52.102;20.614;2023-04-25T11:44:20;11.40;99.90
20442;DHT22;10380;52.102;20.614;2023-04-25T11:46:47;11.40;99.90
20442;DHT22;10380;52.102;20.614;2023-04-25T11:49:15;11.40;99.90
20442;DHT22;10380;52.102;20.614;2023-04-25T11:51:43;11.30;99.90
20442;DHT22;10380;52.102;20.614;2023-04-25T11:54:11;11.30;99.90
20442;DHT22;10380;52.102;20.614;2023-04-25T11:56:45;11.30;99.90
20442;DHT22;10380;52.102;20.614;2023-04-25T11:59:12;11.30;99.90
20442;DHT22;10380;52.102;20.614;2023-04-25T12:01:41;11.30;99.90
20442;DHT22;10380;52.102;20.614;2023-04-25T12:04:22;11.20;99.90
20442;DHT22;10380;52.102;20.614;2023-04-25T12:06:51;11.20;99.90
20442;DHT22;10380;52.102;20.614;2023-04-25T12:09:31;11.20;99.90
20442;DHT22;10380;52.102;20.614;2023-04-25T12:11:59;11.10;99.90
20442;DHT22;10380;52.102;20.614;2023-04-25T12:14:32;11.10;99.90
20442;DHT22;10380;52.102;20.614;2023-04-25T12:17:01;11.10;99.90
20442;DHT22;10380;52.102;20.614;2023-04-25T12:19:36;11.10;99.90
20442;DHT22;10380;52.102;20.614;2023-04-25T12:22:08;11.10;99.90
20442;DHT22;10380;52.102;20.614;2023-04-25T12:24:45;11.10;99.90
20442;DHT22;10380;52.102;20.614;2023-04-25T12:27:15;11.20;99.90
20442;DHT22;10380;52.102;20.614;2023-04-25T12:29:56;11.20;99.90
20442;DHT22;10380;52.102;20.614;2023-04-25T12:32:23;11.20;99.90
20442;DHT22;10380;52.102;20.614;2023-04-25T12:34:50;11.10;99.90
20442;DHT22;10380;52.102;20.614;2023-04-25T12:37:18;11.20;99.90
20442;DHT22;10380;52.102;20.614;2023-04-25T12:39:45;11.20;99.90
20442;DHT22;10380;52.102;20.614;2023-04-25T12:42:11;11.20;99.90
20442;DHT22;10380;52.102;20.614;2023-04-25T12:44:39;11.30;99.90
20442;DHT22;10380;52.102;20.614;2023-04-25T12:47:06;11.40;99.90
20442;DHT22;10380;52.102;20.614;2023-04-25T12:49:34;11.50;99.90
20442;DHT22;10380;52.102;20.614;2023-04-25T12:52:00;11.50;99.90
20442;DHT22;10380;52.102;20.614;2023-04-25T12:54:27;11.50;99.90
20442;DHT22;10380;52.102;20.614;2023-04-25T12:56:54;11.60;99.90
20442;DHT22;10380;52.102;20.614;2023-04-25T12:59:21;11.70;99.90
20442;DHT22;10380;52.102;20.614;2023-04-25T13:01:48;11.80;99.90
20442;DHT22;10380;52.102;20.614;2023-04-25T13:04:18;11.80;99.90
20442;DHT22;10380;52.102;20.614;2023-04-25T13:06:49;11.90;99.90
20442;DHT22;10380;52.102;20.614;2023-04-25T13:09:17;11.90;99.90
20442;DHT22;10380;52.102;20.614;2023-04-25T13:11:43;11.90;99.90
20442;DHT22;10380;52.102;20.614;2023-04-25T13:14:12;11.90;99.90
20442;DHT22;10380;52.102;20.614;2023-04-25T13:16:41;11.80;99.90
20442;DHT22;10380;52.102;20.614;2023-04-25T13:19:08;11.70;99.90
20442;DHT22;10380;52.102;20.614;2023-04-25T13:21:37;11.70;99.90
20442;DHT22;10380;52.102;20.614;2023-04-25T13:24:05;11.70;99.90
20442;DHT22;10380;52.102;20.614;2023-04-25T13:26:33;11.60;99.90
20442;DHT22;10380;52.102;20.614;2023-04-25T13:29:00;11.50;99.90
20442;DHT22;10380;52.102;20.614;2023-04-25T13:31:27;11.50;99.90
20442;DHT22;10380;52.102;20.614;2023-04-25T13:33:55;11.40;99.90
20442;DHT22;10380;52.102;20.614;2023-04-25T13:36:22;11.40;99.90
20442;DHT22;10380;52.102;20.614;2023-04-25T13:38:49;11.40;99.90
20442;DHT22;10380;52.102;20.614;2023-04-25T13:41:16;11.40;99.90
20442;DHT22;10380;52.102;20.614;2023-04-25T13:43:46;11.40;99.90
20442;DHT22;10380;52.102;20.614;2023-04-25T13:46:14;11.30;99.90
20442;DHT22;10380;52.102;20.614;2023-04-25T13:49:02;11.20;99.90
20442;DHT22;10380;52.102;20.614;2023-04-25T13:51:39;11.20;99.90
20442;DHT22;10380;52.102;20.614;2023-04-25T13:54:07;11.00;99.90
20442;DHT22;10380;52.102;20.614;2023-04-25T13:56:34;10.90;99.90
20442;DHT22;10380;52.102;20.614;2023-04-25T13:59:01;10.70;99.90
20442;DHT22;10380;52.102;20.614;2023-04-25T14:01:28;10.70;99.90
20442;DHT22;10380;52.102;20.614;2023-04-25T14:03:57;10.60;99.90
20442;DHT22;10380;52.102;20.614;2023-04-25T14:06:24;10.50;99.90
20442;DHT22;10380;52.102;20.614;2023-04-25T14:08:52;10.50;99.90
20442;DHT22;10380;52.102;20.614;2023-04-25T14:11:20;10.40;99.90
20442;DHT22;10380;52.102;20.614;2023-04-25T14:13:47;10.40;99.90
20442;DHT22;10380;52.102;20.614;2023-04-25T14:16:16;10.30;99.90
20442;DHT22;10380;52.102;20.614;2023-04-25T14:18:43;10.20;99.90
20442;DHT22;10380;52.102;20.614;2023-04-25T14:21:10;10.20;99.90
20442;DHT22;10380;52.102;20.614;2023-04-25T14:23:37;10.10;99.90
20442;DHT22;10380;52.102;20.614;2023-04-25T14:26:04;10.00;99.90
20442;DHT22;10380;52.102;20.614;2023-04-25T14:28:31;10.00;99.90
20442;DHT22;10380;52.102;20.614;2023-04-25T14:30:59;10.00;99.90
20442;DHT22;10380;52.102;20.614;2023-04-25T14:33:26;10.00;99.90
20442;DHT22;10380;52.102;20.614;2023-04-25T14:35:53;10.00;99.90
20442;DHT22;10380;52.102;20.614;2023-04-25T14:38:23;9.90;99.90
20442;DHT22;10380;52.102;20.614;2023-04-25T14:40:52;10.00;99.90
20442;DHT22;10380;52.102;20.614;2023-04-25T14:43:20;10.00;99.90
20442;DHT22;10380;52.102;20.614;2023-04-25T14:45:47;10.00;99.90
20442;DHT22;10380;52.102;20.614;2023-04-25T14:48:14;10.00;99.90
20442;DHT22;10380;52.102;20.614;2023-04-25T14:50:42;10.00;99.90
20442;DHT22;10380;52.102;20.614;2023-04-25T14:53:08;10.00;99.90
20442;DHT22;10380;52.102;20.614;2023-04-25T14:55:35;10.00;99.90
20442;DHT22;10380;52.102;20.614;2023-04-25T14:58:03;10.00;99.90
20442;DHT22;10380;52.102;20.614;2023-04-25T15:00:30;10.00;99.90
20442;DHT22;10380;52.102;20.614;2023-04-25T15:02:58;10.10;99.90
20442;DHT22;10380;52.102;20.614;2023-04-25T15:05:25;10.10;99.90
20442;DHT22;10380;52.102;20.614;2023-04-25T15:07:52;10.10;99.90
20442;DHT22;10380;52.102;20.614;2023-04-25T15:10:19;10.20;99.90
20442;DHT22;10380;52.102;20.614;2023-04-25T15:12:46;10.20;99.90
20442;DHT22;10380;52.102;20.614;2023-04-25T15:15:14;10.10;99.90
20442;DHT22;10380;52.102;20.614;2023-04-25T15:17:51;10.10;99.90
20442;DHT22;10380;52.102;20.614;2023-04-25T15:20:18;10.00;99.90
20442;DHT22;10380;52.102;20.614;2023-04-25T15:22:45;9.90;99.90
20442;DHT22;10380;52.102;20.614;2023-04-25T15:25:12;9.80;99.90
20442;DHT22;10380;52.102;20.614;2023-04-25T15:27:39;9.70;99.90
20442;DHT22;10380;52.102;20.614;2023-04-25T15:30:11;9.60;99.90
20442;DHT22;10380;52.102;20.614;2023-04-25T15:32:39;9.50;99.90
20442;DHT22;10380;52.102;20.614;2023-04-25T15:35:07;9.50;99.90